Time;durP1;ratioP1;P1;durP2;ratioP2;P2;SDS_P1;SDS_P2;PMS_P1;PMS_P2;Temp;Humidity;BMP_temperature;BMP_pressure;BME280_temperature;BME280_humidity;BME280_pressure;Samples;Min_cycle;Max_cycle;Signal;HPM_P1;HPM_P2
2023/02/02 00:02:03;;;;;;;30.88;4.13;;;4.40;99.90;;;;;;6153034;23;20029;-80
2023/02/02 00:04:31;;;;;;;35.75;5.07;;;4.40;99.90;;;;;;6153349;23;20013;-81
2023/02/02 00:06:58;;;;;;;31.85;4.13;;;4.40;99.90;;;;;;6153538;23;20351;-81
2023/02/02 00:09:27;;;;;;;28.67;3.75;;;4.40;99.90;;;;;;6128050;23;20048;-80
2023/02/02 00:11:54;;;;;;;28.77;4.75;;;4.50;99.90;;;;;;6154004;23;20032;-81
2023/02/02 00:14:19;;;;;;;28.80;4.25;;;4.40;99.90;;;;;;6153247;23;20040;-81
2023/02/02 00:16:48;;;;;;;26.70;3.97;;;4.40;99.90;;;;;;6152239;23;20022;-81
2023/02/02 00:19:16;;;;;;;30.35;4.75;;;4.50;99.90;;;;;;6154562;23;20013;-81
2023/02/02 00:21:42;;;;;;;22.92;3.92;;;4.60;99.90;;;;;;6152880;23;20013;-81
2023/02/02 00:24:10;;;;;;;23.77;4.38;;;4.60;99.90;;;;;;6128852;23;20031;-80
2023/02/02 00:26:36;;;;;;;26.55;4.07;;;4.60;99.90;;;;;;6151931;23;20009;-80
2023/02/02 00:29:02;;;;;;;29.00;3.53;;;4.60;99.90;;;;;;6129343;23;20018;-81
2023/02/02 00:31:28;;;;;;;26.02;3.92;;;4.60;99.90;;;;;;6127974;23;20332;-81
2023/02/02 00:33:53;;;;;;;23.80;3.70;;;4.60;99.90;;;;;;6129282;23;20048;-80
2023/02/02 00:36:20;;;;;;;27.30;4.18;;;4.70;99.90;;;;;;6152533;23;20064;-80
2023/02/02 00:38:47;;;;;;;28.23;4.00;;;4.70;99.90;;;;;;6128869;23;20453;-81
2023/02/02 00:41:12;;;;;;;30.85;3.70;;;4.70;99.90;;;;;;6153373;23;20088;-80
2023/02/02 00:43:38;;;;;;;29.02;3.67;;;4.80;99.90;;;;;;6128830;23;20014;-81
2023/02/02 00:46:04;;;;;;;26.77;3.75;;;4.80;99.90;;;;;;6126713;23;20014;-80
2023/02/02 00:48:30;;;;;;;39.90;5.50;;;4.80;99.90;;;;;;6130038;23;20017;-80
2023/02/02 00:50:56;;;;;;;30.90;4.20;;;4.80;99.90;;;;;;6152754;23;20021;-80
2023/02/02 00:53:21;;;;;;;34.58;4.53;;;4.80;99.90;;;;;;6153389;23;20014;-81
2023/02/02 00:55:47;;;;;;;26.33;3.97;;;4.90;99.90;;;;;;6127136;23;20022;-81
2023/02/02 00:58:12;;;;;;;28.52;4.97;;;4.90;99.90;;;;;;6128133;23;20119;-80
2023/02/02 01:00:38;;;;;;;24.58;3.97;;;5.00;99.90;;;;;;6127844;23;20084;-81
2023/02/02 01:03:05;;;;;;;23.55;3.15;;;5.00;99.90;;;;;;6129076;23;20811;-80
2023/02/02 01:05:35;;;;;;;30.02;4.18;;;5.00;99.90;;;;;;6152198;23;20005;-81
2023/02/02 01:08:00;;;;;;;24.80;3.78;;;5.10;99.90;;;;;;6128271;23;20044;-81
2023/02/02 01:10:26;;;;;;;21.38;4.20;;;5.10;99.90;;;;;;6128208;23;20013;-80
2023/02/02 01:12:52;;;;;;;24.05;3.67;;;5.10;99.90;;;;;;6152858;23;20688;-81
2023/02/02 01:15:17;;;;;;;32.95;4.72;;;5.10;99.90;;;;;;6149920;23;20662;-81
2023/02/02 01:17:43;;;;;;;17.98;3.60;;;5.10;99.90;;;;;;6153161;23;20093;-81
2023/02/02 01:20:15;;;;;;;26.92;3.55;;;5.20;99.90;;;;;;6152711;23;20021;-80
2023/02/02 01:22:41;;;;;;;25.48;3.97;;;5.20;99.90;;;;;;6128586;23;20017;-81
2023/02/02 01:25:07;;;;;;;26.48;4.35;;;5.20;99.90;;;;;;6126571;23;20010;-80
2023/02/02 01:27:32;;;;;;;21.75;4.35;;;5.20;99.90;;;;;;6153339;23;20016;-80
2023/02/02 01:29:58;;;;;;;23.95;3.50;;;5.30;99.90;;;;;;6127668;23;20054;-81
2023/02/02 01:32:24;;;;;;;20.45;3.20;;;5.30;99.90;;;;;;6127803;23;20045;-81
2023/02/02 01:34:49;;;;;;;27.48;3.53;;;5.30;99.90;;;;;;6126404;23;20442;-81
2023/02/02 01:37:15;;;;;;;22.33;3.25;;;5.30;99.90;;;;;;6151886;23;20020;-80
2023/02/02 01:39:40;;;;;;;31.92;4.10;;;5.40;99.90;;;;;;6152183;23;20076;-81
2023/02/02 01:42:18;;;;;;;22.17;3.72;;;5.40;99.90;;;;;;6128518;23;20009;-80
2023/02/02 01:44:55;;;;;;;25.77;4.00;;;5.40;99.90;;;;;;6127157;23;20418;-81
2023/02/02 01:47:25;;;;;;;27.98;4.00;;;5.50;99.90;;;;;;6151088;23;20351;-81
2023/02/02 01:49:53;;;;;;;25.20;3.88;;;5.50;99.90;;;;;;6127633;23;20013;-80
2023/02/02 01:52:22;;;;;;;21.58;3.33;;;5.60;99.90;;;;;;6127976;23;20041;-81
2023/02/02 01:54:53;;;;;;;26.08;4.15;;;5.60;99.90;;;;;;6126248;23;20052;-81
2023/02/02 01:57:34;;;;;;;19.55;3.08;;;5.70;99.90;;;;;;6126879;23;20014;-81
2023/02/02 02:00:04;;;;;;;27.67;3.80;;;5.70;99.90;;;;;;6125736;23;20017;-80
2023/02/02 02:02:30;;;;;;;24.70;3.05;;;5.70;99.90;;;;;;6150790;23;20017;-81
2023/02/02 02:04:58;;;;;;;24.88;3.17;;;5.70;99.90;;;;;;6124610;23;20055;-81
2023/02/02 02:07:24;;;;;;;25.70;3.38;;;5.70;99.90;;;;;;6126544;23;20023;-80
2023/02/02 02:09:50;;;;;;;22.70;3.80;;;5.80;99.90;;;;;;6126676;23;20061;-81
2023/02/02 02:12:15;;;;;;;21.00;2.65;;;5.80;99.90;;;;;;6151216;23;20021;-79
2023/02/02 02:17:43;;;;;;;29.45;3.30;;;5.80;99.90;;;;;;6151160;23;20024;-81
2023/02/02 02:27:26;;;;;;;22.77;2.85;;;5.90;99.90;;;;;;6151090;23;20486;-81
2023/02/02 02:30:06;;;;;;;18.85;2.45;;;5.90;99.90;;;;;;6095827;23;20048;-80
2023/02/02 02:32:45;;;;;;;17.95;3.88;;;5.90;99.90;;;;;;6151582;23;20037;-81
2023/02/02 02:35:32;;;;;;;17.33;2.38;;;5.90;99.90;;;;;;6124793;23;20013;-81
2023/02/02 02:38:01;;;;;;;34.17;4.90;;;5.90;99.90;;;;;;6152000;23;20065;-82
2023/02/02 02:40:41;;;;;;;19.80;2.60;;;6.00;99.90;;;;;;6125589;23;20453;-81
2023/02/02 02:43:15;;;;;;;19.15;2.92;;;6.00;99.90;;;;;;6151735;23;20010;-80
2023/02/02 02:45:43;;;;;;;22.60;2.88;;;6.00;99.90;;;;;;6149701;23;20097;-79
2023/02/02 02:48:09;;;;;;;17.23;2.95;;;6.00;99.90;;;;;;6127004;23;20071;-81
2023/02/02 02:50:34;;;;;;;15.30;2.85;;;6.10;99.90;;;;;;6151179;23;20021;-81
2023/02/02 02:53:21;;;;;;;27.52;2.90;;;6.10;99.90;;;;;;6126591;23;20094;-80
2023/02/02 02:55:55;;;;;;;;;;;6.10;99.90;;;;;;6125236;23;20013;-81
2023/02/02 02:58:48;;;;;;;19.38;4.05;;;6.20;99.90;;;;;;6150664;23;19991;-81
2023/02/02 03:01:24;;;;;;;24.35;4.00;;;6.20;99.90;;;;;;6125889;23;20027;-80
2023/02/02 03:04:02;;;;;;;;;;;6.20;99.90;;;;;;6127584;23;20443;-81
2023/02/02 03:06:43;;;;;;;19.63;2.90;;;6.20;99.90;;;;;;6149872;23;19917;-81
2023/02/02 03:09:18;;;;;;;20.17;3.67;;;6.20;99.90;;;;;;6151378;23;20018;-81
2023/02/02 03:11:44;;;;;;;16.80;2.95;;;6.20;99.90;;;;;;6126046;23;20026;-80
2023/02/02 03:14:10;;;;;;;10.85;1.77;;;6.20;99.90;;;;;;6126453;23;20028;-81
2023/02/02 03:16:36;;;;;;;13.13;1.77;;;6.20;99.90;;;;;;6150434;23;20017;-80
2023/02/02 03:19:03;;;;;;;24.85;3.47;;;6.20;99.90;;;;;;6151537;23;20013;-81
2023/02/02 03:21:29;;;;;;;15.60;1.63;;;6.20;99.90;;;;;;6127196;23;20018;-80
2023/02/02 03:23:55;;;;;;;11.05;1.30;;;6.20;99.90;;;;;;6126602;23;20017;-81
2023/02/02 03:26:21;;;;;;;19.42;2.88;;;6.20;99.90;;;;;;6125633;23;20014;-80
2023/02/02 03:28:48;;;;;;;12.88;2.00;;;6.20;99.90;;;;;;6127467;23;20051;-81
2023/02/02 03:31:13;;;;;;;14.55;2.53;;;6.20;99.90;;;;;;6126488;23;20040;-80
2023/02/02 03:33:39;;;;;;;10.77;1.50;;;6.30;99.90;;;;;;6151308;23;20053;-81
2023/02/02 03:36:05;;;;;;;9.15;1.63;;;6.20;99.90;;;;;;6149466;23;20020;-81
2023/02/02 03:38:31;;;;;;;17.15;1.80;;;6.20;99.90;;;;;;6151160;23;20489;-80
2023/02/02 03:40:57;;;;;;;13.82;1.73;;;6.30;99.90;;;;;;6150872;23;20010;-81
2023/02/02 03:43:23;;;;;;;11.32;2.00;;;6.20;99.90;;;;;;6152528;23;20896;-80
2023/02/02 03:46:00;;;;;;;13.38;1.73;;;6.20;99.90;;;;;;6152200;23;20013;-80
2023/02/02 03:48:26;;;;;;;6.72;1.33;;;6.20;99.90;;;;;;6155111;23;20017;-81
2023/02/02 03:50:52;;;;;;;6.60;0.85;;;6.10;99.90;;;;;;6154474;23;20383;-82
2023/02/02 03:53:18;;;;;;;7.85;1.70;;;6.10;99.90;;;;;;6128986;23;20064;-82
2023/02/02 03:55:43;;;;;;;7.68;0.95;;;6.10;99.90;;;;;;6128505;23;20128;-79
2023/02/02 03:58:09;;;;;;;5.00;0.90;;;6.10;99.90;;;;;;6153017;23;20010;-81
2023/02/02 04:00:34;;;;;;;12.50;2.55;;;6.10;99.90;;;;;;6152263;23;20036;-81
2023/02/02 04:03:00;;;;;;;7.93;1.50;;;6.00;99.90;;;;;;6153097;23;20174;-80
2023/02/02 04:05:26;;;;;;;7.28;1.02;;;6.00;99.90;;;;;;6152467;23;20063;-81
2023/02/02 04:07:52;;;;;;;11.82;1.33;;;6.00;99.90;;;;;;6128342;23;20021;-80
2023/02/02 04:10:18;;;;;;;9.32;1.15;;;6.00;99.90;;;;;;6153655;23;20021;-80
2023/02/02 04:12:44;;;;;;;9.05;1.08;;;6.00;99.90;;;;;;6153383;23;20013;-79
2023/02/02 04:15:10;;;;;;;8.68;1.10;;;6.00;99.90;;;;;;6128484;23;20021;-81
2023/02/02 04:17:36;;;;;;;13.05;1.05;;;6.00;99.90;;;;;;6152003;23;20053;-80
2023/02/02 04:20:03;;;;;;;7.78;1.40;;;6.00;99.90;;;;;;6151919;23;20092;-81
2023/02/02 04:22:29;;;;;;;13.95;1.27;;;6.00;99.90;;;;;;6126905;23;20143;-80
2023/02/02 04:24:54;;;;;;;13.95;1.13;;;6.00;99.90;;;;;;6151975;23;20045;-80
2023/02/02 04:27:20;;;;;;;10.68;1.25;;;6.00;99.90;;;;;;6153251;23;20509;-80
2023/02/02 04:29:46;;;;;;;8.98;1.40;;;5.90;99.90;;;;;;6153217;23;20025;-81
2023/02/02 04:32:15;;;;;;;9.77;1.10;;;6.00;99.90;;;;;;6151911;23;20009;-80
2023/02/02 04:34:41;;;;;;;10.07;1.30;;;6.00;99.90;;;;;;6152655;23;20045;-81
2023/02/02 04:37:06;;;;;;;9.65;1.20;;;6.00;99.90;;;;;;6128336;23;20024;-80
2023/02/02 04:39:32;;;;;;;7.95;1.20;;;5.90;99.90;;;;;;6151840;23;20009;-81
2023/02/02 04:41:57;;;;;;;11.98;1.20;;;5.90;99.90;;;;;;6153460;23;20013;-80
2023/02/02 04:44:23;;;;;;;9.77;1.17;;;5.90;99.90;;;;;;6152878;23;20021;-80
2023/02/02 04:46:48;;;;;;;13.30;1.38;;;6.00;99.90;;;;;;6151946;23;20017;-81
2023/02/02 04:49:14;;;;;;;8.38;1.08;;;5.90;99.90;;;;;;6151555;23;20017;-81
2023/02/02 04:51:40;;;;;;;11.23;1.83;;;5.90;99.90;;;;;;6152291;23;20013;-79
2023/02/02 04:54:06;;;;;;;11.48;1.27;;;5.90;99.90;;;;;;6151922;23;20017;-80
2023/02/02 04:56:32;;;;;;;9.52;1.02;;;5.90;99.90;;;;;;6127968;23;20014;-80
2023/02/02 04:58:58;;;;;;;15.75;2.10;;;5.90;99.90;;;;;;6152737;23;20060;-80
2023/02/02 05:01:24;;;;;;;9.18;1.15;;;5.90;99.90;;;;;;6126203;23;20021;-80
2023/02/02 05:03:50;;;;;;;11.93;1.10;;;5.90;99.90;;;;;;6127993;23;20005;-79
2023/02/02 05:06:18;;;;;;;5.90;0.73;;;5.90;99.90;;;;;;6151057;23;20013;-80
2023/02/02 05:08:43;;;;;;;10.90;1.25;;;5.90;99.90;;;;;;6129065;23;20447;-80
2023/02/02 05:11:15;;;;;;;11.93;1.20;;;5.90;99.90;;;;;;6128584;23;20045;-80
2023/02/02 05:13:45;;;;;;;10.95;1.60;;;5.90;99.90;;;;;;6128703;23;20009;-80
2023/02/02 05:16:11;;;;;;;11.25;1.42;;;5.90;99.90;;;;;;6125921;23;20058;-80
2023/02/02 05:18:37;;;;;;;7.20;1.00;;;5.90;99.90;;;;;;6126633;23;20015;-80
2023/02/02 05:21:03;;;;;;;8.10;1.25;;;5.90;99.90;;;;;;6154091;23;20028;-80
2023/02/02 05:23:30;;;;;;;10.30;1.05;;;5.90;99.90;;;;;;6130195;23;20013;-80
2023/02/02 05:25:56;;;;;;;6.13;1.20;;;5.90;99.90;;;;;;6129996;23;20020;-80
2023/02/02 05:28:23;;;;;;;7.20;0.85;;;5.80;99.90;;;;;;6130616;23;20026;-80
2023/02/02 05:30:49;;;;;;;8.43;1.20;;;5.90;99.90;;;;;;6128087;23;20048;-84
2023/02/02 05:33:17;;;;;;;5.95;0.57;;;5.80;99.90;;;;;;6131590;23;20462;-83
2023/02/02 05:36:34;;;;;;;9.65;0.68;;;5.90;99.90;;;;;;6152644;23;20690;-81
2023/02/02 05:39:00;;;;;;;7.43;0.93;;;5.90;99.90;;;;;;6156029;23;20049;-83
2023/02/02 05:41:25;;;;;;;6.85;0.70;;;5.80;99.90;;;;;;6130348;23;20443;-83
2023/02/02 05:43:51;;;;;;;7.03;1.10;;;5.90;99.90;;;;;;6130630;23;20032;-82
2023/02/02 05:46:16;;;;;;;9.02;1.10;;;5.80;99.90;;;;;;6154986;23;20072;-82
2023/02/02 05:48:42;;;;;;;5.13;0.60;;;5.80;99.90;;;;;;6155285;23;20429;-83
2023/02/02 05:51:26;;;;;;;10.55;1.30;;;5.80;99.90;;;;;;6132852;23;20793;-82
2023/02/02 05:53:52;;;;;;;9.13;0.90;;;5.80;99.90;;;;;;6131123;23;20014;-81
2023/02/02 05:56:17;;;;;;;12.73;2.58;;;5.80;99.90;;;;;;6149963;23;20104;-80
2023/02/02 05:58:46;;;;;;;8.43;1.13;;;5.80;99.90;;;;;;6152641;23;20017;-83
2023/02/02 06:01:11;;;;;;;8.85;0.85;;;5.80;99.90;;;;;;6129670;23;20017;-83
2023/02/02 06:03:37;;;;;;;9.50;0.70;;;5.80;99.90;;;;;;6155817;23;20037;-79
2023/02/02 06:06:30;;;;;;;10.00;1.13;;;5.80;99.90;;;;;;6130039;23;20018;-83
2023/02/02 06:08:55;;;;;;;6.10;0.50;;;6.10;99.90;;;;;;6123588;23;20056;-79
2023/02/02 06:11:21;;;;;;;10.80;0.90;;;5.80;99.90;;;;;;6153366;23;20049;-82
2023/02/02 06:13:46;;;;;;;6.18;0.70;;;5.80;99.90;;;;;;6129817;23;20454;-81
2023/02/02 06:16:12;;;;;;;12.52;1.17;;;5.80;99.90;;;;;;6132107;23;20240;-81
2023/02/02 06:18:38;;;;;;;5.38;0.98;;;5.80;99.90;;;;;;6126853;23;20024;-80
2023/02/02 06:21:04;;;;;;;8.38;1.88;;;5.80;99.90;;;;;;6150286;23;20059;-82
2023/02/02 06:23:31;;;;;;;8.07;0.68;;;5.80;99.90;;;;;;6132152;23;20009;-82
2023/02/02 06:25:58;;;;;;;7.15;0.88;;;5.80;99.90;;;;;;6128327;23;20020;-81
2023/02/02 06:28:23;;;;;;;4.55;0.60;;;5.70;99.90;;;;;;6133682;23;20045;-80
2023/02/02 06:30:49;;;;;;;3.70;0.52;;;5.80;99.90;;;;;;6131209;23;20017;-81
2023/02/02 06:33:14;;;;;;;9.88;0.80;;;5.80;99.90;;;;;;6154175;23;20079;-83
2023/02/02 06:35:40;;;;;;;7.20;1.35;;;5.70;99.90;;;;;;6130668;23;20420;-79
2023/02/02 06:38:05;;;;;;;5.25;0.73;;;5.70;99.90;;;;;;6132806;23;20149;-82
2023/02/02 06:40:31;;;;;;;8.68;1.67;;;5.80;99.90;;;;;;6156374;23;20048;-83
2023/02/02 06:42:58;;;;;;;6.97;0.90;;;5.80;99.90;;;;;;6132611;23;20669;-83
2023/02/02 06:45:24;;;;;;;6.57;0.95;;;5.70;99.90;;;;;;6127308;23;20017;-82
2023/02/02 06:47:50;;;;;;;7.80;1.63;;;5.70;99.90;;;;;;6153321;23;20064;-79
2023/02/02 06:50:16;;;;;;;11.07;1.20;;;5.80;99.90;;;;;;6147935;23;20017;-78
2023/02/02 06:52:49;;;;;;;9.77;0.95;;;5.70;99.90;;;;;;6145478;23;20013;-78
2023/02/02 06:55:15;;;;;;;9.27;1.50;;;5.70;99.90;;;;;;6148810;23;20026;-78
2023/02/02 06:57:41;;;;;;;5.15;1.00;;;5.70;99.90;;;;;;6127987;23;20098;-78
2023/02/02 07:00:07;;;;;;;7.28;0.90;;;5.70;99.90;;;;;;6149211;23;20049;-80
2023/02/02 07:02:32;;;;;;;7.05;1.15;;;5.70;99.90;;;;;;6149739;23;20129;-80
2023/02/02 07:04:58;;;;;;;3.75;0.75;;;5.70;99.90;;;;;;6123423;23;20037;-81
2023/02/02 07:07:23;;;;;;;7.38;0.98;;;5.70;99.90;;;;;;6147252;23;20028;-78
2023/02/02 07:09:49;;;;;;;5.80;1.30;;;5.70;99.90;;;;;;6145343;23;20048;-77
2023/02/02 07:12:16;;;;;;;8.88;1.45;;;5.70;99.90;;;;;;6146767;23;20346;-78
2023/02/02 07:14:42;;;;;;;8.90;2.05;;;5.70;99.90;;;;;;6146532;23;20067;-77
2023/02/02 07:17:07;;;;;;;8.05;2.22;;;5.70;99.90;;;;;;6139016;23;20514;-78
2023/02/02 07:19:33;;;;;;;12.38;1.40;;;5.70;99.90;;;;;;6138872;23;20025;-78
2023/02/02 07:21:59;;;;;;;8.70;1.33;;;5.70;99.90;;;;;;6140867;23;20021;-80
2023/02/02 07:24:26;;;;;;;6.30;0.90;;;5.80;99.90;;;;;;6142216;23;20109;-80
2023/02/02 07:26:52;;;;;;;4.95;1.30;;;5.80;99.90;;;;;;6145016;23;20017;-82
2023/02/02 07:29:17;;;;;;;8.02;1.17;;;5.70;99.90;;;;;;6141164;23;20451;-82
2023/02/02 07:31:43;;;;;;;5.95;0.80;;;5.80;99.90;;;;;;6139169;23;20092;-78
2023/02/02 07:34:08;;;;;;;5.38;1.13;;;5.70;99.90;;;;;;6139907;23;20025;-77
2023/02/02 07:36:34;;;;;;;6.78;1.80;;;5.80;99.90;;;;;;6141587;23;20471;-78
2023/02/02 07:39:04;;;;;;;4.47;1.05;;;5.80;99.90;;;;;;6140477;23;20014;-81
2023/02/02 07:41:30;;;;;;;6.00;1.25;;;5.80;99.90;;;;;;6139342;23;20930;-80
2023/02/02 07:43:55;;;;;;;7.13;1.17;;;5.80;99.90;;;;;;6141872;23;20013;-79
2023/02/02 07:46:21;;;;;;;5.90;1.20;;;5.70;99.90;;;;;;6137665;23;20021;-79
2023/02/02 07:48:47;;;;;;;3.72;1.30;;;5.70;99.90;;;;;;6140488;23;20024;-82
2023/02/02 07:51:15;;;;;;;7.25;1.92;;;5.80;99.90;;;;;;6136099;23;20068;-77
2023/02/02 07:53:49;;;;;;;3.08;1.20;;;5.80;99.90;;;;;;6139367;23;20022;-79
2023/02/02 07:56:17;;;;;;;4.05;1.48;;;5.80;99.90;;;;;;6139997;23;20017;-78
2023/02/02 07:58:43;;;;;;;4.75;1.70;;;5.90;99.90;;;;;;6113357;23;20021;-80
2023/02/02 08:01:11;;;;;;;3.78;1.70;;;5.80;99.90;;;;;;6139382;23;20018;-80
2023/02/02 08:03:37;;;;;;;5.40;1.65;;;5.80;99.90;;;;;;6140265;23;20518;-82
2023/02/02 08:06:18;;;;;;;5.70;1.50;;;5.90;99.90;;;;;;6139305;23;20017;-82
2023/02/02 08:08:45;;;;;;;4.32;1.60;;;5.80;99.90;;;;;;6140079;23;20017;-78
2023/02/02 08:11:12;;;;;;;4.72;1.30;;;5.80;99.90;;;;;;6139628;23;20018;-84
2023/02/02 08:13:39;;;;;;;5.00;1.35;;;5.80;99.90;;;;;;6141533;23;20509;-80
2023/02/02 08:16:05;;;;;;;4.22;1.40;;;5.90;99.90;;;;;;6138962;23;20072;-80
2023/02/02 08:18:32;;;;;;;3.28;1.23;;;5.90;99.90;;;;;;6144022;23;20658;-80
2023/02/02 08:21:04;;;;;;;3.30;1.10;;;5.80;99.90;;;;;;6139293;23;20018;-80
2023/02/02 08:23:30;;;;;;;2.50;1.10;;;5.90;99.90;;;;;;6140225;23;20017;-80
2023/02/02 08:26:06;;;;;;;7.35;1.52;;;5.90;99.90;;;;;;6138933;23;20024;-78
2023/02/02 08:28:32;;;;;;;3.03;1.17;;;6.10;99.90;;;;;;6138860;23;20018;-78
2023/02/02 08:31:07;;;;;;;4.53;1.00;;;5.90;99.90;;;;;;6114198;23;20024;-78
2023/02/02 08:33:32;;;;;;;3.93;1.03;;;5.90;99.90;;;;;;6141170;23;20017;-82
2023/02/02 08:35:58;;;;;;;5.82;1.40;;;5.90;99.90;;;;;;6137361;23;20498;-78
2023/02/02 08:38:24;;;;;;;4.47;0.77;;;5.90;99.90;;;;;;6138890;23;20017;-78
2023/02/02 08:40:50;;;;;;;4.20;1.10;;;5.90;99.90;;;;;;6138138;23;20017;-83
2023/02/02 08:43:16;;;;;;;4.75;1.27;;;5.90;99.90;;;;;;6140145;23;20399;-78
2023/02/02 08:45:42;;;;;;;3.47;1.00;;;6.00;99.90;;;;;;6138572;23;20715;-83
2023/02/02 08:48:08;;;;;;;2.95;1.20;;;6.00;99.90;;;;;;6139986;23;20018;-79
2023/02/02 08:50:33;;;;;;;3.17;0.80;;;6.00;99.90;;;;;;6112969;23;20111;-78
2023/02/02 08:52:59;;;;;;;6.20;1.15;;;6.00;99.90;;;;;;6139671;23;20016;-82
2023/02/02 08:55:24;;;;;;;2.45;1.02;;;6.00;99.90;;;;;;6136609;23;20888;-81
2023/02/02 08:57:50;;;;;;;3.53;1.23;;;6.10;99.90;;;;;;6138583;23;20024;-82
2023/02/02 09:00:16;;;;;;;3.10;1.10;;;6.10;99.90;;;;;;6141366;23;20052;-80
2023/02/02 09:02:42;;;;;;;2.15;0.90;;;6.10;99.90;;;;;;6138924;23;20013;-80
2023/02/02 09:05:07;;;;;;;2.70;1.20;;;6.20;99.90;;;;;;6136714;23;20083;-78
2023/02/02 09:07:33;;;;;;;1.63;0.75;;;6.20;99.90;;;;;;6140539;23;20091;-80
2023/02/02 09:09:59;;;;;;;3.70;1.10;;;6.30;99.90;;;;;;6137369;23;20015;-80
2023/02/02 09:12:25;;;;;;;2.42;1.15;;;6.30;99.90;;;;;;6139147;23;20048;-80
2023/02/02 09:14:51;;;;;;;3.05;1.40;;;6.40;99.90;;;;;;6137358;23;20067;-82
2023/02/02 09:17:17;;;;;;;2.90;1.30;;;6.40;99.90;;;;;;6140104;23;20072;-83
2023/02/02 09:19:42;;;;;;;3.15;1.30;;;6.40;99.90;;;;;;6142302;23;20686;-80
2023/02/02 09:22:08;;;;;;;2.05;0.80;;;6.50;99.90;;;;;;6143116;23;20022;-82
2023/02/02 09:24:33;;;;;;;3.85;0.90;;;6.50;99.90;;;;;;6112798;23;20016;-80
2023/02/02 09:26:59;;;;;;;2.20;0.80;;;6.50;99.90;;;;;;6138373;23;20017;-80
2023/02/02 09:29:25;;;;;;;1.65;0.73;;;6.60;99.90;;;;;;6140451;23;20355;-80
2023/02/02 09:31:50;;;;;;;2.90;0.60;;;6.60;99.90;;;;;;6139221;23;20025;-81
2023/02/02 09:34:16;;;;;;;2.35;0.88;;;6.60;99.90;;;;;;6138151;23;20028;-83
2023/02/02 09:36:42;;;;;;;2.22;0.73;;;6.60;99.90;;;;;;6137246;23;20045;-80
2023/02/02 09:39:11;;;;;;;3.92;0.63;;;6.60;99.90;;;;;;6140088;23;20017;-79
2023/02/02 09:41:36;;;;;;;2.45;0.60;;;6.60;99.90;;;;;;6139141;23;20068;-78
2023/02/02 09:44:21;;;;;;;2.63;0.60;;;6.60;99.90;;;;;;6138268;23;20530;-80
2023/02/02 09:47:13;;;;;;;2.92;0.43;;;6.70;99.90;;;;;;6113815;23;20020;-81
2023/02/02 09:49:43;;;;;;;2.35;0.50;;;6.80;99.90;;;;;;6135409;23;20022;-83
2023/02/02 09:52:20;;;;;;;1.33;0.75;;;6.80;99.90;;;;;;6137818;23;20052;-79
2023/02/02 09:54:49;;;;;;;1.67;0.70;;;6.80;99.90;;;;;;6138325;23;20021;-81
2023/02/02 09:57:43;;;;;;;2.22;0.60;;;6.90;99.90;;;;;;6139011;23;20021;-81
2023/02/02 10:00:34;;;;;;;2.88;0.60;;;6.80;99.90;;;;;;6061939;23;20438;-82
2023/02/02 10:03:19;;;;;;;5.00;1.38;;;6.80;99.90;;;;;;6141911;23;20430;-79
2023/02/02 10:05:54;;;;;;;1.58;0.60;;;6.90;99.90;;;;;;6137989;23;20013;-77
2023/02/02 10:08:34;;;;;;;2.70;0.73;;;6.90;99.90;;;;;;6138720;23;20034;-82
2023/02/02 10:11:18;;;;;;;3.72;0.60;;;6.90;99.90;;;;;;6137433;23;20282;-82
2023/02/02 10:13:47;;;;;;;3.53;1.00;;;6.90;99.90;;;;;;6089698;23;20022;-79
2023/02/02 10:16:18;;;;;;;5.20;0.80;;;7.00;99.90;;;;;;6135732;23;20087;-81
2023/02/02 10:19:01;;;;;;;1.77;0.50;;;7.10;99.90;;;;;;6138984;23;20624;-80
2023/02/02 10:21:39;;;;;;;2.88;0.60;;;7.10;99.90;;;;;;6138172;23;20779;-81
2023/02/02 10:24:15;;;;;;;2.92;0.70;;;7.10;99.90;;;;;;6137973;23;20013;-78
2023/02/02 10:26:50;;;;;;;2.95;0.70;;;7.10;99.90;;;;;;6137048;23;20885;-81
2023/02/02 10:29:22;;;;;;;2.45;0.50;;;7.10;99.90;;;;;;6113095;23;20024;-77
2023/02/02 10:32:06;;;;;;;4.00;0.40;;;7.20;99.90;;;;;;6139718;23;20018;-76
2023/02/02 10:34:41;;;;;;;2.53;0.28;;;7.20;99.90;;;;;;6136302;23;20021;-79
2023/02/02 10:37:22;;;;;;;3.85;0.68;;;7.10;99.90;;;;;;6111428;23;20107;-83
2023/02/02 10:40:20;;;;;;;0.82;0.30;;;7.20;99.90;;;;;;6139783;23;20017;-79
2023/02/02 10:45:48;;;;;;;2.95;0.47;;;7.10;99.90;;;;;;6136032;23;20029;-79
2023/02/02 10:48:18;;;;;;;2.70;0.50;;;7.10;99.90;;;;;;6141745;23;20339;-79
2023/02/02 10:50:50;;;;;;;0.95;0.40;;;7.10;99.90;;;;;;6139226;23;20026;-77
2023/02/02 10:53:16;;;;;;;1.33;0.40;;;7.10;99.90;;;;;;6143495;23;20088;-83
2023/02/02 10:55:45;;;;;;;1.50;0.28;;;7.20;99.90;;;;;;6145095;23;20049;-80
2023/02/02 10:58:10;;;;;;;1.08;0.30;;;7.20;99.90;;;;;;6147181;23;20096;-79
2023/02/02 11:00:42;;;;;;;3.28;0.40;;;7.20;99.90;;;;;;6121133;23;20406;-77
2023/02/02 11:03:10;;;;;;;1.83;0.50;;;7.20;99.90;;;;;;6121315;23;20028;-79
2023/02/02 11:08:23;;;;;;;2.30;0.43;;;7.20;99.90;;;;;;6143994;23;20083;-80
2023/02/02 11:10:53;;;;;;;4.75;0.93;;;7.20;99.90;;;;;;6142554;23;20022;-84
2023/02/02 11:13:25;;;;;;;0.93;0.50;;;7.20;99.90;;;;;;6143596;23;20470;-81
2023/02/02 11:16:14;;;;;;;2.85;0.40;;;7.20;99.90;;;;;;6138871;23;20164;-82
2023/02/02 11:18:43;;;;;;;1.67;0.50;;;7.20;99.90;;;;;;6143247;23;20017;-79
2023/02/02 11:21:20;;;;;;;1.50;0.40;;;7.20;99.90;;;;;;6139828;23;20343;-78
2023/02/02 11:24:05;;;;;;;1.70;0.77;;;7.20;99.90;;;;;;6143401;23;20220;-79
2023/02/02 11:26:48;;;;;;;2.67;1.00;;;7.20;99.90;;;;;;6142567;23;20099;-83
2023/02/02 11:29:21;;;;;;;2.55;0.93;;;7.20;99.90;;;;;;6140410;23;20026;-81
2023/02/02 11:31:47;;;;;;;3.70;0.80;;;7.20;99.90;;;;;;6149719;23;20100;-80
2023/02/02 11:34:18;;;;;;;2.45;0.40;;;7.20;99.90;;;;;;6142063;23;20092;-79
2023/02/02 11:37:11;;;;;;;4.30;0.60;;;7.20;99.90;;;;;;6146372;23;20025;-80
2023/02/02 11:39:36;;;;;;;1.92;0.40;;;7.20;99.90;;;;;;6147793;23;20394;-79
2023/02/02 11:42:11;;;;;;;5.70;0.50;;;7.20;99.90;;;;;;6140844;23;20018;-82
2023/02/02 11:44:38;;;;;;;3.85;0.57;;;7.20;99.90;;;;;;6150977;23;20068;-79
2023/02/02 11:47:05;;;;;;;4.53;1.02;;;7.20;99.90;;;;;;6140886;23;20014;-83
2023/02/02 11:49:36;;;;;;;4.57;0.50;;;7.20;99.90;;;;;;6142624;23;20438;-80
2023/02/02 11:52:05;;;;;;;5.18;0.50;;;7.20;99.90;;;;;;6141356;23;20022;-83
2023/02/02 11:54:36;;;;;;;4.47;0.63;;;7.20;99.90;;;;;;6141067;23;20021;-80
2023/02/02 11:57:06;;;;;;;4.18;0.43;;;7.10;99.90;;;;;;6140327;23;20076;-81
2023/02/02 11:59:40;;;;;;;8.13;0.82;;;7.10;99.90;;;;;;6139389;23;20023;-78
2023/02/02 12:02:12;;;;;;;3.88;0.52;;;7.10;99.90;;;;;;6147413;23;20358;-78
2023/02/02 12:04:39;;;;;;;6.68;0.50;;;7.10;99.90;;;;;;6118055;23;20092;-81
2023/02/02 12:07:26;;;;;;;3.10;0.45;;;7.10;99.90;;;;;;6136021;23;20025;-78
2023/02/02 12:09:56;;;;;;;7.10;0.60;;;7.10;99.90;;;;;;6140865;23;20021;-82
2023/02/02 12:12:49;;;;;;;3.53;0.35;;;7.10;99.90;;;;;;6140949;23;20118;-77
2023/02/02 12:15:36;;;;;;;6.97;4.53;;;7.10;99.90;;;;;;6139086;23;20017;-81
2023/02/02 12:18:22;;;;;;;7.22;0.98;;;7.10;99.90;;;;;;6146877;23;20013;-80
2023/02/02 12:20:55;;;;;;;4.25;0.70;;;7.10;99.90;;;;;;6118991;23;20029;-80
2023/02/02 12:23:39;;;;;;;6.55;0.57;;;7.10;99.90;;;;;;6150377;23;20017;-80
2023/02/02 12:26:32;;;;;;;2.33;0.30;;;7.10;99.90;;;;;;6151923;23;20025;-79
2023/02/02 12:29:33;;;;;;;3.63;0.68;;;7.20;99.90;;;;;;6146141;23;20984;-77
2023/02/02 12:32:16;;;;;;;4.57;0.63;;;7.10;99.90;;;;;;6149469;23;20032;-78
2023/02/02 12:34:55;;;;;;;5.68;0.47;;;7.20;99.90;;;;;;6147738;23;20335;-81
2023/02/02 12:37:38;;;;;;;7.35;0.80;;;7.20;99.90;;;;;;6149091;23;20029;-79
2023/02/02 12:40:04;;;;;;;2.28;0.30;;;7.10;99.90;;;;;;6149017;23;20404;-79
2023/02/02 12:42:42;;;;;;;3.20;0.30;;;7.10;99.90;;;;;;6149192;23;20100;-82
2023/02/02 12:45:19;;;;;;;6.15;1.20;;;7.10;99.90;;;;;;6118191;23;20024;-82
2023/02/02 12:48:02;;;;;;;2.05;0.30;;;7.10;99.90;;;;;;6143713;23;20521;-77
2023/02/02 12:50:37;;;;;;;4.22;0.80;;;7.10;99.90;;;;;;6143070;23;20025;-78
2023/02/02 12:53:38;;;;;;;5.05;1.00;;;7.10;99.90;;;;;;6145411;23;20095;-80
2023/02/02 12:56:30;;;;;;;5.47;1.00;;;7.10;99.90;;;;;;6114573;23;20028;-78
2023/02/02 12:59:21;;;;;;;3.95;0.77;;;7.10;99.90;;;;;;6140991;23;20351;-77
2023/02/02 13:02:25;;;;;;;3.25;0.65;;;7.00;99.90;;;;;;6116690;23;20023;-78
2023/02/02 13:05:20;;;;;;;6.85;0.70;;;7.10;99.90;;;;;;6141110;23;20017;-81
2023/02/02 13:07:52;;;;;;;4.22;0.73;;;7.00;99.90;;;;;;6139838;23;20112;-82
2023/02/02 13:10:34;;;;;;;1.42;0.43;;;7.00;99.90;;;;;;6149095;23;20519;-79
2023/02/02 13:13:07;;;;;;;5.95;0.77;;;7.60;99.90;;;;;;6140499;23;20661;-84
2023/02/02 13:15:38;;;;;;;3.85;0.75;;;7.00;99.90;;;;;;6139222;23;20469;-78
2023/02/02 13:18:15;;;;;;;13.45;8.27;;;7.00;99.90;;;;;;6149368;23;20354;-77
2023/02/02 13:20:46;;;;;;;8.93;4.90;;;6.90;99.90;;;;;;6149564;23;20021;-81
2023/02/02 13:23:32;;;;;;;7.32;6.60;;;7.00;99.90;;;;;;6125465;23;20079;-78
2023/02/02 13:26:12;;;;;;;4.10;1.20;;;7.00;99.90;;;;;;6148387;23;20017;-78